San Angelo, TX

5:26 AM CDT on May 27, 2015 (GMT -0500)
Dove Creek | | Change Station
CLOSE
Current Station
Personal Weather Station
Location: San Angelo, TX
Elevation: 2185 ft
Nearby Weather Stations

Elev 2185 ft 31.22 °N, 100.72 °W | Updated 22 seconds ago

Overcast
Overcast
71.4 °F
Feels Like 71 °F
N
2.0
Wind Variable Wind from ENE
Gusts 2.5 mph

Today
High -- | Low -- °F
--% Chance of Precip.
Yesterday
High -- | Low -- °F
Precip. -- in
6:39 AM 8:39 PM
Waxing Gibbous, 66% visible
Pressure 30.02 in
Visibility 10.0 miles
Clouds Mostly Cloudy 1400 ft
Mostly Cloudy 3100 ft
Overcast 4400 ft
Heat Index 71 °F
Dew Point 66 °F
Humidity 82%
Rainfall 0.00 in
Snow Depth Not available.
UV 0 out of 12
Pollen 6.40 out of 12
Air Quality Not available.
Flu Activity Sporadic
SPECI KSJT 271010Z 07005KT 10SM BKN014 BKN031 OVC044 22/21 A3002 RMK AO2 T02220206

More Conditions Fewer Conditions

Pressure 30.02 in
Visibility 10.0 miles
Clouds Mostly Cloudy 1400 ft
Mostly Cloudy 3100 ft
Overcast 4400 ft
Heat Index 71 °F
Dew Point 66 °F
Humidity 82%
Rainfall 0.00 in
Snow Depth Not available.
UV 0 out of 12
Pollen 6.40 out of 12
Air Quality Not available.
Flu Activity Sporadic
SPECI KSJT 271010Z 07005KT 10SM BKN014 BKN031 OVC044 22/21 A3002 RMK AO2 T02220206

More Conditions Fewer Conditions

Nowcast | as of 3:38 am CDT on May 27, 2015

Scattered showers and thunderstorms continue between Robert Lee and San Saba. These storms will move northeast and will likely impact Ballinger and Brookesmith by 4 am...Coleman and Brownwood by 5 am. Rainfall amounts will be about a quarter inch the heavier showers.

×

10-Day Weather Forecast

Almanac

Astronomy

May. 27, 2015 Rise Set
Actual Time
Civil Twilight
Nautical Twilight
Astronomical Twilight
Moon
Length of Visible Light
Length of Day
Tomorrow will be .
, % of the Moon is Illuminated

Today's Extremes

State Highs State Lows

Community

WunderPhotos

Upload Photos

1,824,635 photos uploaded!

WunderBlogs® & News

Nearby

Air Quality

  Air Quality AQ Index Pollutant
Not available.

Snow Depth

Station Depth Elevation

Earthquake Activity

City Distance Mag. Time & Date
Minimum magnitude displayed is 2.5.

Coastal Water Temperatures

Place Temperature

Stations

Nearby Weather Stations

Station Location Temp. Windchill Dew Point Humidity Wind Precip. Elev Updated Type